Hutchinson, KS

6:24 PM CDT on March 30, 2017 (GMT -0500)
Graham's | | Change Station
Active Advisory: Flood Warning

Elev 1548 ft 38.08 °N, 97.94 °W | Updated 11 minutes ago

Overcast
Overcast
46.8 °F
Feels Like 45 °F
N
4.0
Wind Variable Wind from North
Gusts 10.0 mph

Today
High -- | Low -- °F
--% Chance of Precip.
Yesterday
High -- | Low -- °F
Precip. -- in
Pressure 29.73 in
Visibility 10.0 miles
Clouds Overcast 1800 ft
Windchill 45 °F
Dew Point 42 °F
Humidity 83%
Rainfall 0.00 in
Snow Depth Not available.
7:19 AM 7:53 PM
Waxing Crescent, 11% visible
METAR KHUT 302252Z 34013KT 10SM OVC018 09/04 A2974 RMK AO2 SLP068 T00890044
Pressure 29.73 in
Visibility 10.0 miles
Clouds Overcast 1800 ft
Windchill 45 °F
Dew Point 42 °F
Humidity 83%
Rainfall 0.00 in
Snow Depth Not available.
7:19 AM 7:53 PM
Waxing Crescent, 11% visible
METAR KHUT 302252Z 34013KT 10SM OVC018 09/04 A2974 RMK AO2 SLP068 T00890044

Get Your Daily Forecast Email!

Thanks for signing up!

Be on the lookout for a verification email in your inbox.

You'll start receiving severe weather alerts in your inbox..

×

10-Day Weather Forecast

Almanac

Astronomy

Mar. 30, 2017 Rise Set
Actual Time
Civil Twilight
Nautical Twilight
Astronomical Twilight
Moon
Length of Visible Light
Length of Day
Tomorrow will be .
, % of the Moon is Illuminated

Today's Extremes

State Highs State Lows

Community

WunderPhotos

Upload Photos

1,962,540 photos uploaded!

WunderBlog® & News

Nearby

Air Quality

  Air Quality AQ Index Pollutant
Not available.

Snow Depth

Station Depth Elevation

Earthquake Activity

City Distance Mag. Time & Date
Minimum magnitude displayed is 2.5.

Earthquake Activity

City Distance Mag. Time & Date
Minimum magnitude displayed is 2.5.

Coastal Water Temperatures

Place Temperature

Stations

Nearby Weather Stations

Station Location Temp. Windchill Dew Point Humidity Wind Precip. Elev Updated Type
                   

Watches & Warnings

Flood Warning
Issued: 2:16 PM CDT Mar. 30, 2017 – National Weather Service

The Flood Warning continues for
the Cow Creek near Hutchinson.
* From Friday afternoon until late Saturday night.
* At 1:31 PM Thursday the stage was 6.5 feet.
* Flood stage is 9.5 feet.
* Minor flooding is forecast.
* Forecast... rise above flood stage by early Friday afternoon and
continue to rise to near 10.0 feet by early Saturday morning. The
river will fall below flood stage by Saturday afternoon.
* Impact... at 10.0 feet... the low water crossing on Wilson Rd between
69th Ave to 82nd Ave floods.



                  Fld observed forecast 6 am
location stg stg day time Fri Sat sun
Hutchinson 9.5 6.5 Thu 02 PM 8.9 10.0 7.3


lat... Lon 3820 9816 3796 9786 3806 9777 3827 9805



Jas